createdAt,value
2024-02-01T00:00:18.637Z,63.50
2024-02-01T00:00:50.962Z,65.90
2024-02-01T00:01:23.497Z,64.43
2024-02-01T00:01:55.493Z,64.40
2024-02-01T00:02:27.689Z,62.77
2024-02-01T00:02:59.855Z,64.77
2024-02-01T00:03:32.064Z,63.63
2024-02-01T00:04:04.440Z,63.83
2024-02-01T00:04:36.509Z,63.90
2024-02-01T00:05:09.522Z,64.50
2024-02-01T00:05:41.876Z,63.47
2024-02-01T00:06:14.147Z,59.47
2024-02-01T00:06:46.217Z,59.07
2024-02-01T00:07:18.275Z,59.80
2024-02-01T00:07:50.419Z,59.83
2024-02-01T00:08:22.646Z,60.23
2024-02-01T00:08:54.764Z,58.17
2024-02-01T00:09:27.324Z,59.13
2024-02-01T00:10:00.845Z,62.17
2024-02-01T00:10:33.929Z,60.33
2024-02-01T00:11:06.471Z,59.67
2024-02-01T00:11:38.512Z,59.93
2024-02-01T00:12:10.664Z,59.83
2024-02-01T00:12:42.759Z,58.30
2024-02-01T00:13:14.952Z,58.30
2024-02-01T00:13:46.924Z,59.40
2024-02-01T00:14:19.028Z,58.07
2024-02-01T00:14:51.181Z,57.63
2024-02-01T00:15:23.357Z,59.00
2024-02-01T00:15:55.536Z,60.83
2024-02-01T00:16:27.585Z,61.03
2024-02-01T00:16:59.667Z,61.63
2024-02-01T00:17:31.868Z,63.30
2024-02-01T00:18:04.772Z,62.57
2024-02-01T00:18:37.088Z,61.23
2024-02-01T00:19:09.285Z,63.77
2024-02-01T00:19:41.456Z,62.77
2024-02-01T00:20:14.001Z,63.57
2024-02-01T00:20:46.080Z,62.30
2024-02-01T00:21:18.884Z,62.50
2024-02-01T00:21:51.109Z,61.90
2024-02-01T00:22:30.453Z,61.70
2024-02-01T00:23:06.130Z,62.03
2024-02-01T00:23:38.191Z,59.43
2024-02-01T00:24:10.367Z,60.70
2024-02-01T00:24:42.444Z,63.10
2024-02-01T00:25:16.174Z,62.93
2024-02-01T00:25:48.167Z,62.53
2024-02-01T00:26:20.202Z,62.83
2024-02-01T00:26:52.359Z,63.83
2024-02-01T00:27:24.399Z,65.43
2024-02-01T00:27:57.833Z,65.80
2024-02-01T00:28:31.549Z,63.47
2024-02-01T00:29:03.918Z,64.10
2024-02-01T00:29:36.056Z,65.63
2024-02-01T00:30:09.039Z,64.33
2024-02-01T00:30:41.077Z,66.43
2024-02-01T00:31:13.180Z,66.27
2024-02-01T00:31:45.291Z,64.90
2024-02-01T00:32:17.437Z,66.83
2024-02-01T00:32:49.501Z,67.20
2024-02-01T00:33:21.828Z,67.17
2024-02-01T00:33:54.797Z,66.90
2024-02-01T00:34:26.939Z,68.57
2024-02-01T00:34:59.136Z,70.07
2024-02-01T00:35:31.222Z,69.73
2024-02-01T00:36:03.627Z,70.53
2024-02-01T00:36:36.152Z,69.63
2024-02-01T00:37:08.200Z,69.17
2024-02-01T00:37:40.241Z,69.27
2024-02-01T00:38:12.276Z,68.53
2024-02-01T00:38:44.374Z,66.97
2024-02-01T00:39:16.540Z,67.47
2024-02-01T00:39:48.572Z,67.17
2024-02-01T00:40:22.174Z,69.97
2024-02-01T00:40:54.232Z,68.07
2024-02-01T00:41:26.381Z,67.77
2024-02-01T00:41:58.639Z,67.07
2024-02-01T00:42:30.871Z,69.03
2024-02-01T00:43:03.046Z,70.50
2024-02-01T00:43:35.030Z,70.33
2024-02-01T00:44:07.135Z,69.20
2024-02-01T00:44:39.368Z,68.93
2024-02-01T00:45:11.481Z,69.40
2024-02-01T00:45:43.609Z,69.07
2024-02-01T00:46:15.658Z,70.10
2024-02-01T00:46:47.846Z,69.87
2024-02-01T00:47:19.933Z,69.97
2024-02-01T00:47:52.113Z,70.50
2024-02-01T00:48:24.359Z,70.47
2024-02-01T00:48:56.835Z,70.10
2024-02-01T00:49:29.327Z,70.70
2024-02-01T00:50:02.034Z,73.70
2024-02-01T00:50:34.142Z,72.97
2024-02-01T00:51:06.210Z,72.20
2024-02-01T00:51:38.265Z,69.70
2024-02-01T00:52:12.731Z,71.23
2024-02-01T00:52:45.933Z,73.03
2024-02-01T00:53:18.077Z,73.63
2024-02-01T00:53:50.256Z,72.60
2024-02-01T00:54:22.325Z,71.67
2024-02-01T00:54:54.337Z,73.60
2024-02-01T00:55:27.855Z,72.53
2024-02-01T00:55:59.984Z,72.90
2024-02-01T00:56:32.037Z,74.50
2024-02-01T00:57:04.808Z,73.20
2024-02-01T00:57:36.950Z,73.87
2024-02-01T00:58:09.024Z,74.07
2024-02-01T00:58:41.063Z,74.30
2024-02-01T00:59:13.147Z,72.83
2024-02-01T00:59:45.298Z,72.93
2024-02-01T01:00:17.962Z,72.33
2024-02-01T01:00:50.248Z,71.30
2024-02-01T01:01:22.493Z,73.47
2024-02-01T01:01:54.586Z,73.67
2024-02-01T01:02:26.752Z,73.50
2024-02-01T01:02:58.849Z,72.13
2024-02-01T01:03:30.900Z,72.17
2024-02-01T01:04:03.092Z,72.97
2024-02-01T01:04:35.136Z,72.90
2024-02-01T01:05:08.195Z,75.33
2024-02-01T01:05:40.221Z,75.53
2024-02-01T01:06:12.653Z,75.77
2024-02-01T01:06:44.820Z,74.77
2024-02-01T01:07:16.917Z,72.30
2024-02-01T01:07:48.960Z,71.63
2024-02-01T01:08:21.106Z,71.37
2024-02-01T01:08:53.427Z,73.23
2024-02-01T01:09:25.424Z,72.80
2024-02-01T01:09:57.634Z,72.20
2024-02-01T01:10:31.038Z,73.57
2024-02-01T01:11:03.291Z,72.07
2024-02-01T01:11:35.505Z,72.63
2024-02-01T01:12:08.120Z,75.53
2024-02-01T01:12:40.192Z,75.13
2024-02-01T01:13:12.302Z,74.63
2024-02-01T01:13:44.547Z,74.50
2024-02-01T01:14:16.576Z,75.03
2024-02-01T01:14:49.357Z,73.87
2024-02-01T01:15:21.418Z,73.97
2024-02-01T01:15:53.538Z,74.43
2024-02-01T01:16:27.091Z,74.23
2024-02-01T01:16:59.062Z,74.93
2024-02-01T01:17:31.236Z,75.33
2024-02-01T01:18:03.565Z,75.63
2024-02-01T01:18:36.478Z,74.97
2024-02-01T01:19:08.690Z,72.30
2024-02-01T01:19:40.944Z,74.87
2024-02-01T01:20:14.583Z,73.03
2024-02-01T01:20:47.440Z,73.50
2024-02-01T01:21:19.603Z,75.73
2024-02-01T01:21:51.645Z,78.60
2024-02-01T01:22:23.722Z,78.50
2024-02-01T01:22:55.717Z,75.13
2024-02-01T01:23:27.955Z,77.07
2024-02-01T01:23:59.960Z,77.70
2024-02-01T01:24:32.070Z,76.67
2024-02-01T01:25:04.825Z,75.20
2024-02-01T01:25:38.272Z,76.73
2024-02-01T01:26:10.352Z,79.40
2024-02-01T01:26:42.532Z,77.47
2024-02-01T01:27:14.678Z,76.90
2024-02-01T01:27:46.832Z,76.47
2024-02-01T01:28:18.909Z,76.10
2024-02-01T01:28:51.001Z,77.60
2024-02-01T01:29:23.127Z,77.70
2024-02-01T01:29:55.241Z,78.40
2024-02-01T01:30:27.247Z,77.83
2024-02-01T01:30:59.414Z,78.33
2024-02-01T01:31:31.549Z,78.33
2024-02-01T01:32:03.890Z,78.73
2024-02-01T01:32:36.114Z,76.40
2024-02-01T01:33:08.414Z,76.13
2024-02-01T01:33:40.689Z,75.37
2024-02-01T01:34:12.902Z,73.03
2024-02-01T01:34:45.142Z,73.27
2024-02-01T01:35:17.580Z,73.67
2024-02-01T01:35:49.635Z,73.90
2024-02-01T01:36:21.710Z,71.70
2024-02-01T01:36:53.760Z,71.30
2024-02-01T01:37:25.753Z,72.83
2024-02-01T01:37:57.786Z,72.90
2024-02-01T01:38:29.983Z,73.37
2024-02-01T01:39:02.134Z,72.73
2024-02-01T01:39:34.291Z,73.87
2024-02-01T01:40:07.587Z,75.10
2024-02-01T01:40:41.121Z,74.63
2024-02-01T01:41:13.181Z,73.70
2024-02-01T01:41:45.754Z,75.03
2024-02-01T01:42:17.853Z,74.70
2024-02-01T01:42:50.031Z,71.43
2024-02-01T01:43:22.203Z,73.13
2024-02-01T01:43:54.226Z,75.17
2024-02-01T01:44:26.287Z,76.83
2024-02-01T01:44:58.309Z,77.47
2024-02-01T01:45:30.313Z,76.83
2024-02-01T01:46:03.743Z,75.77
2024-02-01T01:46:35.977Z,76.03
2024-02-01T01:47:08.077Z,76.63
2024-02-01T01:47:40.935Z,76.60
2024-02-01T01:48:13.444Z,76.37
2024-02-01T01:48:45.865Z,76.63
2024-02-01T01:49:19.499Z,75.07
2024-02-01T01:49:51.790Z,75.53
2024-02-01T01:50:24.250Z,76.77
2024-02-01T01:50:57.010Z,77.33
2024-02-01T01:51:29.163Z,76.03
2024-02-01T01:52:01.802Z,75.40
2024-02-01T01:52:37.353Z,74.77
2024-02-01T01:53:10.028Z,73.00
2024-02-01T01:53:43.482Z,74.87
2024-02-01T01:54:17.554Z,75.80
2024-02-01T01:54:50.905Z,75.27
2024-02-01T01:55:23.823Z,76.03
2024-02-01T01:55:58.640Z,75.23
2024-02-01T01:56:30.805Z,76.30
2024-02-01T01:57:04.558Z,77.07
2024-02-01T01:57:37.190Z,73.87
2024-02-01T01:58:09.420Z,74.43
2024-02-01T01:58:42.685Z,76.20
2024-02-01T01:59:17.123Z,76.20
2024-02-01T01:59:49.548Z,74.17
2024-02-01T02:00:22.778Z,75.73
2024-02-01T02:00:55.876Z,76.93
2024-02-01T02:01:28.567Z,77.13
2024-02-01T02:02:01.317Z,77.40
2024-02-01T02:02:33.836Z,76.07
2024-02-01T02:03:06.036Z,75.33
2024-02-01T02:03:39.138Z,72.27
2024-02-01T02:04:14.602Z,71.20
2024-02-01T02:04:46.741Z,72.37
2024-02-01T02:05:18.815Z,72.60
2024-02-01T02:05:51.261Z,72.63
2024-02-01T02:06:23.772Z,73.30
2024-02-01T02:06:56.003Z,73.57
2024-02-01T02:07:28.125Z,73.43
2024-02-01T02:08:00.151Z,74.00
2024-02-01T02:08:32.216Z,73.63
2024-02-01T02:09:04.619Z,72.80
2024-02-01T02:09:37.105Z,72.57
2024-02-01T02:10:09.742Z,74.57
2024-02-01T02:10:42.099Z,72.40
2024-02-01T02:11:16.279Z,73.07
2024-02-01T02:11:48.753Z,73.17
2024-02-01T02:12:20.807Z,74.13
2024-02-01T02:12:52.855Z,75.37
2024-02-01T02:13:24.915Z,74.50
2024-02-01T02:13:56.965Z,73.80
2024-02-01T02:14:29.131Z,74.50
2024-02-01T02:15:03.741Z,73.93
2024-02-01T02:15:36.382Z,72.37
2024-02-01T02:16:08.377Z,72.97
2024-02-01T02:16:40.450Z,72.27
2024-02-01T02:17:12.552Z,75.00
2024-02-01T02:17:44.719Z,77.57
2024-02-01T02:18:16.966Z,77.00
2024-02-01T02:18:49.599Z,79.17
2024-02-01T02:19:22.155Z,76.60
2024-02-01T02:19:55.164Z,75.97
2024-02-01T02:20:29.242Z,75.03
2024-02-01T02:21:02.883Z,75.47
2024-02-01T02:21:35.093Z,73.03
2024-02-01T02:22:08.560Z,74.27
2024-02-01T02:22:40.759Z,76.63
2024-02-01T02:23:13.782Z,75.77
2024-02-01T02:23:46.541Z,75.67
2024-02-01T02:24:19.972Z,77.70
2024-02-01T02:24:52.072Z,74.00
2024-02-01T02:25:24.050Z,75.40
2024-02-01T02:25:56.135Z,77.10
2024-02-01T02:26:28.244Z,78.27
2024-02-01T02:27:04.522Z,76.30
2024-02-01T02:27:36.705Z,77.40
2024-02-01T02:28:08.844Z,77.50
2024-02-01T02:28:40.968Z,76.13
2024-02-01T02:29:13.510Z,76.00
2024-02-01T02:29:45.580Z,79.73
2024-02-01T02:30:17.817Z,78.97
2024-02-01T02:30:49.881Z,79.43
2024-02-01T02:31:22.186Z,79.20
2024-02-01T02:31:54.252Z,78.73
2024-02-01T02:32:26.364Z,80.00
2024-02-01T02:32:58.557Z,81.17
2024-02-01T02:33:30.967Z,80.00
2024-02-01T02:34:03.650Z,80.73
2024-02-01T02:34:35.811Z,79.60
2024-02-01T02:35:11.103Z,76.80
2024-02-01T02:35:43.216Z,77.87
2024-02-01T02:36:15.654Z,79.10
2024-02-01T02:36:47.767Z,79.30
2024-02-01T02:37:21.355Z,76.23
2024-02-01T02:37:53.627Z,74.20
2024-02-01T02:38:26.183Z,76.47
2024-02-01T02:38:58.324Z,77.20
2024-02-01T02:39:40.644Z,75.80
2024-02-01T02:40:14.045Z,75.73
2024-02-01T02:40:46.210Z,74.60
2024-02-01T02:41:18.328Z,73.77
2024-02-01T02:41:50.492Z,74.53
2024-02-01T02:42:22.593Z,75.07
2024-02-01T02:42:54.852Z,75.97
2024-02-01T02:43:26.923Z,77.17
2024-02-01T02:43:59.046Z,77.57
2024-02-01T02:44:31.135Z,75.67
2024-02-01T02:45:03.516Z,76.33
2024-02-01T02:45:35.726Z,77.80
2024-02-01T02:46:07.721Z,77.63
2024-02-01T02:46:40.340Z,77.23
2024-02-01T02:47:12.556Z,77.30
2024-02-01T02:47:45.758Z,76.67
2024-02-01T02:48:18.033Z,75.70
2024-02-01T02:48:50.290Z,77.93
2024-02-01T02:49:22.572Z,76.77
2024-02-01T02:49:54.704Z,75.93
2024-02-01T02:50:27.108Z,73.80
2024-02-01T02:50:59.243Z,76.90
2024-02-01T02:51:31.666Z,76.47
2024-02-01T02:52:04.000Z,75.13
2024-02-01T02:52:38.354Z,76.07
2024-02-01T02:53:10.354Z,77.67
2024-02-01T02:53:42.702Z,80.13
2024-02-01T02:54:14.824Z,79.23
2024-02-01T02:54:46.969Z,78.50
2024-02-01T02:55:19.286Z,80.20
2024-02-01T02:55:51.335Z,77.77
2024-02-01T02:56:23.873Z,77.40
2024-02-01T02:56:56.060Z,78.50
2024-02-01T02:57:28.082Z,79.37
2024-02-01T02:58:00.217Z,78.30
2024-02-01T02:58:32.289Z,78.60
2024-02-01T02:59:04.480Z,77.60
2024-02-01T02:59:38.134Z,79.93
2024-02-01T03:00:12.115Z,79.93
2024-02-01T03:00:44.420Z,79.30
2024-02-01T03:01:16.571Z,80.30
2024-02-01T03:01:48.666Z,79.33
2024-02-01T03:02:20.705Z,79.67
2024-02-01T03:02:52.939Z,77.80
2024-02-01T03:03:25.067Z,77.47
2024-02-01T03:03:57.209Z,77.40
2024-02-01T03:04:29.388Z,80.70
2024-02-01T03:05:01.589Z,80.17
2024-02-01T03:05:33.789Z,79.53
2024-02-01T03:06:05.906Z,79.70
2024-02-01T03:06:38.208Z,81.47
2024-02-01T03:07:10.512Z,80.90
2024-02-01T03:07:44.071Z,78.33
2024-02-01T03:08:16.108Z,78.47
2024-02-01T03:08:48.218Z,77.40
2024-02-01T03:09:20.326Z,77.07
2024-02-01T03:09:52.347Z,77.67
2024-02-01T03:10:24.534Z,78.30
2024-02-01T03:10:56.562Z,76.83
2024-02-01T03:11:28.790Z,77.70
2024-02-01T03:12:00.933Z,78.20
2024-02-01T03:12:33.287Z,80.37
2024-02-01T03:13:05.754Z,80.93
2024-02-01T03:13:38.093Z,77.13
2024-02-01T03:14:10.231Z,77.67
2024-02-01T03:14:43.659Z,77.20
2024-02-01T03:15:16.043Z,78.43
2024-02-01T03:15:48.269Z,79.40
2024-02-01T03:16:22.042Z,77.80
2024-02-01T03:16:54.069Z,76.20
2024-02-01T03:17:26.070Z,76.53
2024-02-01T03:17:58.210Z,77.47
2024-02-01T03:18:30.507Z,74.70
2024-02-01T03:19:02.936Z,76.10
2024-02-01T03:19:35.824Z,75.27
2024-02-01T03:20:09.893Z,73.80
2024-02-01T03:20:41.950Z,75.03
2024-02-01T03:21:15.128Z,75.87
2024-02-01T03:21:47.245Z,74.00
2024-02-01T03:22:19.694Z,72.90
2024-02-01T03:22:53.047Z,74.50
2024-02-01T03:23:25.086Z,75.00
2024-02-01T03:23:57.177Z,73.67
2024-02-01T03:24:29.409Z,74.10
2024-02-01T03:25:01.835Z,73.70
2024-02-01T03:25:34.044Z,74.47
2024-02-01T03:26:06.171Z,73.77
2024-02-01T03:26:38.258Z,74.67
2024-02-01T03:27:10.360Z,76.33
2024-02-01T03:27:42.452Z,75.90
2024-02-01T03:28:14.479Z,73.27
2024-02-01T03:28:46.562Z,71.53
2024-02-01T03:29:18.836Z,73.23
2024-02-01T03:29:50.969Z,73.47
2024-02-01T03:30:23.148Z,73.30
2024-02-01T03:30:55.170Z,72.50
2024-02-01T03:31:27.692Z,73.47
2024-02-01T03:31:59.662Z,71.67
2024-02-01T03:32:32.253Z,70.73
2024-02-01T03:33:05.186Z,70.27
2024-02-01T03:33:37.654Z,70.27
2024-02-01T03:34:10.365Z,70.70
2024-02-01T03:34:42.511Z,70.03
2024-02-01T03:35:14.825Z,70.67
2024-02-01T03:35:47.038Z,70.83
2024-02-01T03:36:19.255Z,70.47
2024-02-01T03:36:51.631Z,70.97
2024-02-01T03:37:23.809Z,70.73
2024-02-01T03:37:57.189Z,69.80
2024-02-01T03:38:29.426Z,70.07
2024-02-01T03:39:01.624Z,69.80
2024-02-01T03:39:33.968Z,69.60
2024-02-01T03:40:07.340Z,69.80
2024-02-01T03:40:39.405Z,71.07
2024-02-01T03:41:11.711Z,71.53
2024-02-01T03:41:43.743Z,68.53
2024-02-01T03:42:15.816Z,68.43
2024-02-01T03:42:48.331Z,70.90
2024-02-01T03:43:20.409Z,70.33
2024-02-01T03:43:52.466Z,68.33
2024-02-01T03:44:26.175Z,69.13
2024-02-01T03:44:58.271Z,70.83
2024-02-01T03:45:30.399Z,70.33
2024-02-01T03:46:02.484Z,70.47
2024-02-01T03:46:34.617Z,71.00
2024-02-01T03:47:07.025Z,70.37
2024-02-01T03:47:39.275Z,71.07
2024-02-01T03:48:11.679Z,70.33
2024-02-01T03:48:43.919Z,69.10
2024-02-01T03:49:16.327Z,70.17
2024-02-01T03:49:48.555Z,70.17
2024-02-01T03:50:20.602Z,70.03
2024-02-01T03:50:53.357Z,69.10
2024-02-01T03:51:25.400Z,69.07
2024-02-01T03:51:57.669Z,71.40
2024-02-01T03:52:29.723Z,70.70
2024-02-01T03:53:03.512Z,69.87
2024-02-01T03:53:35.606Z,69.73
2024-02-01T03:54:07.848Z,71.03
2024-02-01T03:54:40.164Z,70.97
2024-02-01T03:55:12.195Z,69.73
2024-02-01T03:55:44.334Z,69.03
2024-02-01T03:56:16.488Z,69.77
2024-02-01T03:56:48.582Z,70.50
2024-02-01T03:57:20.732Z,70.03
2024-02-01T03:57:52.822Z,68.50
2024-02-01T03:58:24.820Z,68.93
2024-02-01T03:58:56.789Z,71.17
2024-02-01T03:59:29.371Z,69.97
2024-02-01T04:00:01.603Z,69.10
2024-02-01T04:00:35.050Z,70.83
2024-02-01T04:01:07.505Z,70.17
2024-02-01T04:01:39.927Z,72.93
2024-02-01T04:02:11.996Z,72.77
2024-02-01T04:02:44.008Z,68.90
2024-02-01T04:03:16.665Z,69.03
2024-02-01T04:03:49.098Z,69.27
2024-02-01T04:04:21.387Z,69.77
2024-02-01T04:04:53.449Z,68.67
2024-02-01T04:05:25.851Z,69.70
2024-02-01T04:05:57.909Z,68.67
2024-02-01T04:06:30.162Z,67.97
2024-02-01T04:07:02.451Z,69.87
2024-02-01T04:07:34.469Z,70.67
2024-02-01T04:08:08.777Z,70.63
2024-02-01T04:08:40.854Z,70.57
2024-02-01T04:09:13.472Z,68.83
2024-02-01T04:09:48.059Z,68.57
2024-02-01T04:10:21.022Z,69.20
2024-02-01T04:10:53.024Z,69.73
2024-02-01T04:11:25.030Z,68.90
2024-02-01T04:11:57.140Z,66.93
2024-02-01T04:12:29.220Z,67.13
2024-02-01T04:13:01.346Z,68.83
2024-02-01T04:13:33.351Z,69.87
2024-02-01T04:14:05.573Z,70.33
2024-02-01T04:14:37.669Z,70.47
2024-02-01T04:15:11.880Z,68.30
2024-02-01T04:15:44.072Z,68.97
2024-02-01T04:16:17.744Z,68.83
2024-02-01T04:16:49.741Z,68.53
2024-02-01T04:17:21.804Z,71.33
2024-02-01T04:17:54.190Z,69.73
2024-02-01T04:18:26.446Z,69.47
2024-02-01T04:18:59.007Z,70.40
2024-02-01T04:19:31.298Z,71.23
2024-02-01T04:20:04.286Z,69.43
2024-02-01T04:20:36.592Z,67.70
2024-02-01T04:21:08.815Z,69.73
2024-02-01T04:21:45.732Z,69.30
2024-02-01T04:22:18.000Z,69.83
2024-02-01T04:22:50.383Z,68.67
2024-02-01T04:23:23.956Z,69.77
2024-02-01T04:23:56.079Z,70.20
2024-02-01T04:24:28.171Z,69.80
2024-02-01T04:25:00.261Z,69.73
2024-02-01T04:25:32.302Z,69.10
2024-02-01T04:26:04.468Z,68.87
2024-02-01T04:26:36.807Z,69.87
2024-02-01T04:27:08.852Z,68.93
2024-02-01T04:27:40.929Z,70.17
2024-02-01T04:28:13.080Z,70.23
2024-02-01T04:28:45.626Z,70.27
2024-02-01T04:29:17.638Z,68.40
2024-02-01T04:29:49.806Z,70.10
2024-02-01T04:30:23.116Z,69.13
2024-02-01T04:30:55.203Z,67.93
2024-02-01T04:31:27.507Z,69.50
2024-02-01T04:31:59.520Z,70.77
2024-02-01T04:32:31.596Z,70.27
2024-02-01T04:33:04.319Z,69.47
2024-02-01T04:33:36.565Z,69.37
2024-02-01T04:34:09.227Z,66.73
2024-02-01T04:34:41.426Z,69.33
2024-02-01T04:35:14.204Z,72.27
2024-02-01T04:35:46.282Z,73.37
2024-02-01T04:36:18.394Z,70.10
2024-02-01T04:36:50.666Z,69.47
2024-02-01T04:37:22.682Z,67.67
2024-02-01T04:37:55.223Z,69.33
2024-02-01T04:38:28.666Z,68.50
2024-02-01T04:39:00.994Z,69.90
2024-02-01T04:39:33.630Z,68.83
2024-02-01T04:40:07.308Z,69.87
2024-02-01T04:40:39.358Z,69.13
2024-02-01T04:41:11.508Z,70.73
2024-02-01T04:41:43.535Z,70.83
2024-02-01T04:42:16.257Z,69.53
2024-02-01T04:42:48.545Z,69.63
2024-02-01T04:43:20.631Z,70.20
2024-02-01T04:43:52.625Z,69.73
2024-02-01T04:44:24.646Z,70.53
2024-02-01T04:44:56.806Z,70.97
2024-02-01T04:45:29.083Z,69.10
2024-02-01T04:46:01.110Z,68.30
2024-02-01T04:46:33.174Z,70.77
2024-02-01T04:47:05.234Z,70.63
2024-02-01T04:47:38.239Z,69.33
2024-02-01T04:48:10.426Z,69.03
2024-02-01T04:48:42.817Z,70.83
2024-02-01T04:49:15.133Z,71.93
2024-02-01T04:49:47.338Z,71.60
2024-02-01T04:50:19.509Z,71.73
2024-02-01T04:50:51.588Z,72.53
2024-02-01T04:51:23.775Z,71.73
2024-02-01T04:51:55.935Z,72.83
2024-02-01T04:52:28.779Z,72.20
2024-02-01T04:53:00.968Z,71.20
2024-02-01T04:53:35.982Z,71.47
2024-02-01T04:54:08.248Z,73.30
2024-02-01T04:54:40.569Z,74.30
2024-02-01T04:55:12.680Z,74.00
2024-02-01T04:55:45.332Z,74.07
2024-02-01T04:56:17.508Z,73.27
2024-02-01T04:56:49.655Z,73.23
2024-02-01T04:57:21.847Z,72.63
2024-02-01T04:57:53.966Z,72.83
2024-02-01T04:58:26.086Z,72.37
2024-02-01T04:59:01.111Z,73.30
2024-02-01T04:59:33.279Z,71.60
2024-02-01T05:00:06.642Z,72.60
2024-02-01T05:00:38.862Z,73.13
2024-02-01T05:01:11.102Z,73.67
2024-02-01T05:01:43.511Z,72.43
2024-02-01T05:02:16.860Z,74.23
2024-02-01T05:02:49.281Z,74.67
2024-02-01T05:03:21.989Z,73.33
2024-02-01T05:03:54.776Z,73.67
2024-02-01T05:04:26.936Z,72.57
2024-02-01T05:04:59.128Z,70.63
2024-02-01T05:05:31.489Z,70.77
2024-02-01T05:06:03.913Z,70.67
2024-02-01T05:06:36.268Z,69.40
2024-02-01T05:07:08.581Z,69.73
2024-02-01T05:07:40.650Z,70.27
2024-02-01T05:08:12.986Z,70.40
2024-02-01T05:08:46.748Z,71.93
2024-02-01T05:09:18.866Z,71.17
2024-02-01T05:09:51.010Z,70.90
2024-02-01T05:10:23.185Z,71.10
2024-02-01T05:10:55.777Z,70.87
2024-02-01T05:11:27.923Z,69.90
2024-02-01T05:12:00.080Z,68.40
2024-02-01T05:12:32.614Z,69.83
2024-02-01T05:13:04.837Z,70.50
2024-02-01T05:13:36.966Z,69.97
2024-02-01T05:14:09.046Z,68.90
2024-02-01T05:14:41.242Z,69.67
2024-02-01T05:15:14.403Z,70.43
2024-02-01T05:15:46.986Z,66.97
2024-02-01T05:16:19.245Z,67.20
2024-02-01T05:16:51.275Z,69.37
2024-02-01T05:17:23.419Z,67.57
2024-02-01T05:17:55.657Z,68.27
2024-02-01T05:18:28.172Z,69.57
2024-02-01T05:19:00.651Z,69.87
2024-02-01T05:19:32.952Z,69.40
2024-02-01T05:20:08.582Z,69.80
2024-02-01T05:20:40.690Z,71.33
2024-02-01T05:21:12.935Z,70.13
2024-02-01T05:21:45.048Z,72.10
2024-02-01T05:22:17.387Z,72.60
2024-02-01T05:22:49.427Z,72.57
2024-02-01T05:23:21.453Z,73.27
2024-02-01T05:23:54.868Z,72.87
2024-02-01T05:24:26.971Z,72.93
2024-02-01T05:24:59.064Z,71.67
2024-02-01T05:25:31.128Z,71.73
2024-02-01T05:26:03.405Z,70.83
2024-02-01T05:26:35.517Z,69.80
2024-02-01T05:27:07.786Z,73.93
2024-02-01T05:27:39.948Z,77.03
2024-02-01T05:28:12.094Z,76.37
2024-02-01T05:28:44.144Z,73.57
2024-02-01T05:29:16.231Z,72.53
2024-02-01T05:29:48.767Z,72.17
2024-02-01T05:30:22.672Z,73.23
2024-02-01T05:30:55.582Z,71.93
2024-02-01T05:31:27.851Z,70.57
2024-02-01T05:32:00.024Z,71.27
2024-02-01T05:32:32.151Z,71.77
2024-02-01T05:33:04.689Z,74.40
2024-02-01T05:33:37.231Z,72.93
2024-02-01T05:34:11.993Z,70.33
2024-02-01T05:34:46.474Z,71.90
2024-02-01T05:35:23.104Z,72.47
2024-02-01T05:35:55.116Z,72.53
2024-02-01T05:36:27.168Z,72.73
2024-02-01T05:36:59.177Z,74.33
2024-02-01T05:37:31.190Z,73.53
2024-02-01T05:38:03.639Z,74.17
2024-02-01T05:38:37.494Z,74.03
2024-02-01T05:39:10.883Z,72.03
2024-02-01T05:39:42.906Z,72.70
2024-02-01T05:40:15.276Z,71.37
2024-02-01T05:40:47.320Z,73.60
2024-02-01T05:41:19.556Z,74.33
2024-02-01T05:41:52.872Z,75.07
2024-02-01T05:42:24.986Z,88.73
2024-02-01T05:42:57.024Z,88.73
2024-02-01T05:43:30.130Z,99.87
2024-02-01T05:44:02.194Z,104.37
2024-02-01T05:44:34.526Z,103.97
2024-02-01T05:45:07.627Z,103.07
2024-02-01T05:45:39.659Z,111.70
2024-02-01T05:46:11.921Z,110.77
2024-02-01T05:46:45.343Z,144.33
2024-02-01T05:47:17.421Z,154.20
2024-02-01T05:47:49.708Z,124.53
2024-02-01T05:48:21.965Z,105.83
2024-02-01T05:48:55.288Z,100.20
2024-02-01T05:49:29.644Z,115.23
2024-02-01T05:50:02.197Z,134.47
2024-02-01T05:50:34.484Z,138.90
2024-02-01T05:51:06.824Z,144.50
2024-02-01T05:51:38.915Z,172.80
2024-02-01T05:52:10.999Z,161.50
2024-02-01T05:52:43.310Z,130.10
2024-02-01T05:53:15.754Z,116.57
2024-02-01T05:53:47.899Z,105.30
2024-02-01T05:54:21.962Z,101.10
2024-02-01T05:54:54.151Z,188.20
2024-02-01T05:55:26.202Z,121.13
2024-02-01T05:55:58.208Z,119.93
2024-02-01T05:56:30.236Z,99.03
2024-02-01T05:57:02.485Z,93.83
2024-02-01T05:57:35.296Z,178.37
2024-02-01T05:58:07.472Z,141.40
2024-02-01T05:58:39.471Z,120.43
2024-02-01T05:59:13.056Z,108.67
2024-02-01T05:59:45.146Z,101.43
2024-02-01T06:00:18.063Z,93.97
2024-02-01T06:00:50.447Z,94.13
2024-02-01T06:01:22.585Z,94.83
2024-02-01T06:01:54.697Z,92.77
2024-02-01T06:02:27.137Z,88.63
2024-02-01T06:02:59.240Z,88.90
2024-02-01T06:03:31.424Z,90.60
2024-02-01T06:04:03.749Z,90.63
2024-02-01T06:04:36.067Z,93.43
2024-02-01T06:05:08.681Z,97.90
2024-02-01T06:05:40.829Z,97.50
2024-02-01T06:06:12.935Z,103.37
2024-02-01T06:06:46.095Z,103.77
2024-02-01T06:07:18.299Z,96.07
2024-02-01T06:07:50.390Z,95.80
2024-02-01T06:08:22.368Z,96.57
2024-02-01T06:08:54.711Z,92.37
2024-02-01T06:09:28.217Z,87.47
2024-02-01T06:10:00.314Z,88.60
2024-02-01T06:10:32.437Z,86.20
2024-02-01T06:11:04.778Z,81.13
2024-02-01T06:11:37.403Z,79.07
2024-02-01T06:12:09.628Z,77.57
2024-02-01T06:12:41.593Z,78.37
2024-02-01T06:13:13.835Z,79.70
2024-02-01T06:13:46.014Z,77.67
2024-02-01T06:14:18.404Z,78.73
2024-02-01T06:14:50.613Z,79.13
2024-02-01T06:15:22.853Z,79.47
2024-02-01T06:15:55.014Z,81.53
2024-02-01T06:16:27.080Z,81.53
2024-02-01T06:16:59.183Z,83.27
2024-02-01T06:17:31.258Z,82.27
2024-02-01T06:18:03.970Z,79.70
2024-02-01T06:18:36.271Z,80.40
2024-02-01T06:19:08.674Z,81.87
2024-02-01T06:19:41.435Z,80.40
2024-02-01T06:20:13.922Z,77.20
2024-02-01T06:20:46.000Z,80.37
2024-02-01T06:21:18.605Z,79.97
2024-02-01T06:21:52.284Z,79.33
2024-02-01T06:22:26.212Z,81.40
2024-02-01T06:22:58.284Z,82.63
2024-02-01T06:23:30.572Z,82.80
2024-02-01T06:24:02.777Z,83.23
2024-02-01T06:24:36.502Z,81.10
2024-02-01T06:25:09.878Z,85.77
2024-02-01T06:25:42.058Z,81.57
2024-02-01T06:26:21.008Z,79.30
2024-02-01T06:26:53.503Z,78.00
2024-02-01T06:27:26.027Z,79.43
2024-02-01T06:27:59.036Z,81.93
2024-02-01T06:28:32.041Z,79.37
2024-02-01T06:29:04.152Z,77.67
2024-02-01T06:29:36.216Z,77.90
2024-02-01T06:30:09.275Z,77.87
2024-02-01T06:30:41.401Z,77.47
2024-02-01T06:31:13.510Z,79.20
2024-02-01T06:31:46.248Z,75.93
2024-02-01T06:32:18.420Z,76.90
2024-02-01T06:32:50.567Z,76.23
2024-02-01T06:33:22.785Z,77.63
2024-02-01T06:33:55.321Z,79.20
2024-02-01T06:34:27.478Z,81.10
2024-02-01T06:35:00.402Z,80.40
2024-02-01T06:35:32.831Z,78.47
2024-02-01T06:36:05.687Z,77.97
2024-02-01T06:36:38.877Z,76.67
2024-02-01T06:37:10.898Z,74.63
2024-02-01T06:37:42.999Z,74.83
2024-02-01T06:38:15.264Z,77.13
2024-02-01T06:38:47.628Z,77.23
2024-02-01T06:39:19.785Z,78.73
2024-02-01T06:39:54.238Z,76.83
2024-02-01T06:40:27.103Z,76.63
2024-02-01T06:40:59.252Z,76.70
2024-02-01T06:41:32.489Z,79.30
2024-02-01T06:42:05.165Z,78.80
2024-02-01T06:42:40.191Z,78.17
2024-02-01T06:43:12.248Z,75.93
2024-02-01T06:43:44.819Z,79.40
2024-02-01T06:44:18.040Z,78.63
2024-02-01T06:44:50.308Z,78.77
2024-02-01T06:45:23.118Z,76.83
2024-02-01T06:45:55.299Z,77.67
2024-02-01T06:46:27.469Z,78.87
2024-02-01T06:47:00.115Z,78.87
2024-02-01T06:47:32.216Z,80.03
2024-02-01T06:48:05.100Z,79.77
2024-02-01T06:48:37.477Z,79.37
2024-02-01T06:49:09.702Z,78.07
2024-02-01T06:49:43.736Z,77.63
2024-02-01T06:50:19.323Z,81.10
2024-02-01T06:50:51.418Z,79.07
2024-02-01T06:51:24.069Z,79.03
2024-02-01T06:51:56.352Z,80.57
2024-02-01T06:52:29.606Z,79.67
2024-02-01T06:53:01.715Z,80.03
2024-02-01T06:53:34.009Z,77.93
2024-02-01T06:54:06.222Z,77.83
2024-02-01T06:54:38.449Z,77.33
2024-02-01T06:55:12.368Z,79.23
2024-02-01T06:55:44.537Z,77.20
2024-02-01T06:56:16.793Z,77.83
2024-02-01T06:56:49.042Z,77.97
2024-02-01T06:57:21.383Z,76.97
2024-02-01T06:57:53.505Z,76.40